Time;durP1;ratioP1;P1;durP2;ratioP2;P2;SDS_P1;SDS_P2;PMS_P1;PMS_P2;Temp;Humidity;BMP_temperature;BMP_pressure;BME280_temperature;BME280_humidity;BME280_pressure;Samples;Min_cycle;Max_cycle;Signal;HPM_P1;HPM_P2
2022/04/22 00:01:16;;;;;;;2.47;2.27;;;13.60;1.00;;;;;;5067702;28;20767;-80
2022/04/22 00:03:45;;;;;;;3.40;2.40;;;13.60;1.00;;;;;;5066811;28;20514;-78
2022/04/22 00:06:14;;;;;;;2.50;2.30;;;13.60;1.00;;;;;;5063205;28;20438;-80
2022/04/22 00:08:42;;;;;;;3.70;2.27;;;13.60;1.00;;;;;;5055575;28;20453;-80
2022/04/22 00:13:57;;;;;;;2.40;2.20;;;13.50;1.00;;;;;;5063105;28;20463;-79
2022/04/22 00:16:28;;;;;;;3.80;2.47;;;13.50;1.00;;;;;;5063233;28;20469;-80
2022/04/22 00:18:56;;;;;;;4.63;2.47;;;13.40;1.00;;;;;;5062857;28;20467;-78
2022/04/22 00:21:26;;;;;;;3.10;2.80;;;13.40;1.00;;;;;;5063975;28;20457;-79
2022/04/22 00:23:54;;;;;;;2.73;2.20;;;13.40;1.00;;;;;;5063544;28;20463;-80
2022/04/22 00:26:23;;;;;;;2.20;2.00;;;13.40;1.00;;;;;;5057892;28;20474;-79
2022/04/22 00:28:51;;;;;;;2.33;2.13;;;13.40;1.00;;;;;;5061067;28;20529;-79
2022/04/22 00:31:20;;;;;;;3.40;2.00;;;13.30;1.00;;;;;;5064696;28;20549;-81
2022/04/22 00:33:49;;;;;;;2.30;2.10;;;13.30;1.00;;;;;;5069780;28;20444;-80
2022/04/22 00:36:18;;;;;;;2.73;2.50;;;13.30;1.00;;;;;;5067686;28;20467;-79
2022/04/22 00:38:46;;;;;;;4.33;2.10;;;13.30;1.00;;;;;;5067203;28;20447;-79
2022/04/22 00:41:14;;;;;;;3.50;1.90;;;13.50;1.00;;;;;;5065580;28;20458;-81
2022/04/22 00:43:44;;;;;;;3.20;2.70;;;13.20;1.00;;;;;;5061804;28;21029;-78
2022/04/22 00:46:13;;;;;;;3.33;2.43;;;13.30;1.00;;;;;;5065979;28;20441;-79
2022/04/22 00:48:41;;;;;;;2.40;2.20;;;13.20;1.00;;;;;;5065689;28;20500;-78
2022/04/22 00:51:12;;;;;;;3.07;2.60;;;13.20;1.00;;;;;;5063442;28;21439;-77
2022/04/22 00:53:42;;;;;;;2.60;1.93;;;13.30;1.00;;;;;;5069045;28;20450;-78
2022/04/22 00:56:11;;;;;;;2.80;2.40;;;13.30;1.00;;;;;;5063154;28;20475;-79
2022/04/22 00:58:41;;;;;;;4.20;2.37;;;13.20;1.00;;;;;;5064424;28;20495;-80
2022/04/22 01:01:11;;;;;;;2.83;2.47;;;13.20;1.00;;;;;;5065490;28;20439;-79
2022/04/22 01:03:39;;;;;;;2.53;2.33;;;13.20;1.00;;;;;;5066859;28;20799;-80
2022/04/22 01:11:37;;;;;;;3.40;2.60;;;13.00;1.00;;;;;;5040435;28;20462;-79
2022/04/22 01:14:07;;;;;;;5.43;2.97;;;13.00;1.00;;;;;;5066395;28;20483;-79
2022/04/22 01:16:36;;;;;;;3.03;2.37;;;13.00;1.00;;;;;;5063750;28;20488;-80
2022/04/22 01:19:04;;;;;;;2.73;2.53;;;13.00;1.00;;;;;;5065031;28;20476;-80
2022/04/22 01:21:34;;;;;;;2.50;2.20;;;13.00;1.00;;;;;;5059282;28;20454;-79
2022/04/22 01:24:02;;;;;;;2.50;2.30;;;12.90;1.00;;;;;;5063944;28;20469;-80
2022/04/22 01:26:30;;;;;;;2.70;2.50;;;12.90;1.00;;;;;;5062977;28;20465;-81
2022/04/22 01:28:59;;;;;;;3.50;3.20;;;12.90;1.00;;;;;;5065964;28;20478;-79
2022/04/22 01:31:28;;;;;;;2.93;2.73;;;12.90;1.00;;;;;;5070054;28;20560;-81
2022/04/22 01:33:56;;;;;;;2.63;2.43;;;12.90;1.00;;;;;;5066649;28;20548;-79
2022/04/22 01:36:24;;;;;;;3.93;3.30;;;12.90;1.00;;;;;;5063010;28;20468;-79
2022/04/22 01:38:54;;;;;;;2.97;2.37;;;12.90;1.00;;;;;;5066260;28;21092;-80
2022/04/22 01:41:22;;;;;;;3.33;2.73;;;12.80;1.00;;;;;;5068247;28;20992;-79
2022/04/22 01:43:50;;;;;;;3.47;2.57;;;12.80;1.00;;;;;;5069512;28;20464;-80
2022/04/22 01:46:18;;;;;;;2.10;2.00;;;12.80;1.00;;;;;;5065338;28;20451;-79
2022/04/22 01:48:47;;;;;;;3.30;2.80;;;12.70;1.00;;;;;;5067080;28;20482;-79
2022/04/22 01:51:15;;;;;;;3.30;2.77;;;12.70;1.00;;;;;;5067292;28;20535;-81
2022/04/22 01:53:43;;;;;;;2.50;2.30;;;12.70;1.00;;;;;;5066430;28;20445;-81
2022/04/22 01:56:13;;;;;;;3.47;2.57;;;12.70;1.00;;;;;;5064617;28;20462;-80
2022/04/22 01:58:41;;;;;;;2.90;2.60;;;12.70;1.00;;;;;;5062503;28;20467;-79
2022/04/22 02:01:09;;;;;;;3.97;2.83;;;12.60;1.00;;;;;;5065832;28;20530;-79
2022/04/22 02:03:37;;;;;;;3.53;3.23;;;12.60;1.00;;;;;;5063143;28;20446;-79
2022/04/22 02:06:06;;;;;;;4.30;3.47;;;12.60;1.00;;;;;;5063581;28;20439;-78
2022/04/22 02:08:36;;;;;;;3.63;3.33;;;12.60;1.00;;;;;;5066383;28;20482;-80
2022/04/22 02:11:04;;;;;;;4.53;3.50;;;12.60;1.00;;;;;;5066805;28;20918;-79
2022/04/22 02:13:36;;;;;;;4.97;4.17;;;12.60;1.00;;;;;;5064325;28;20451;-81
2022/04/22 02:16:06;;;;;;;4.90;3.53;;;12.70;1.00;;;;;;5069030;28;20898;-79
2022/04/22 02:18:36;;;;;;;3.03;2.40;;;12.60;1.00;;;;;;5063253;28;20474;-82
2022/04/22 02:21:06;;;;;;;6.00;3.80;;;12.60;1.00;;;;;;5066951;28;20451;-78
2022/04/22 02:23:34;;;;;;;5.53;3.70;;;12.60;1.00;;;;;;5059743;28;20459;-80
2022/04/22 02:26:03;;;;;;;4.20;3.90;;;12.50;1.00;;;;;;5058800;28;21453;-78
2022/04/22 02:28:33;;;;;;;4.47;4.07;;;12.50;1.00;;;;;;5063133;28;20470;-78
2022/04/22 02:31:05;;;;;;;4.37;3.23;;;12.40;1.00;;;;;;5067485;28;20501;-79
2022/04/22 02:33:34;;;;;;;3.73;3.00;;;12.40;1.00;;;;;;5060868;28;20468;-78
2022/04/22 02:36:03;;;;;;;3.27;2.97;;;12.40;1.00;;;;;;5066908;28;20482;-79
2022/04/22 02:38:32;;;;;;;6.87;3.23;;;12.40;1.00;;;;;;5058332;28;20470;-79
2022/04/22 02:46:33;;;;;;;4.13;3.63;;;12.40;1.00;;;;;;5058691;28;20454;-79
2022/04/22 02:49:02;;;;;;;4.03;3.57;;;12.30;1.00;;;;;;5067017;28;20451;-80
2022/04/22 02:51:30;;;;;;;4.30;3.90;;;12.20;1.00;;;;;;5064064;28;20446;-79
2022/04/22 02:53:58;;;;;;;4.83;3.33;;;12.20;1.00;;;;;;5065929;28;20456;-79
2022/04/22 02:56:28;;;;;;;3.80;2.80;;;12.20;1.00;;;;;;5061790;28;20462;-80
2022/04/22 02:58:57;;;;;;;4.53;3.47;;;12.30;1.00;;;;;;5097694;28;20454;-80
2022/04/22 03:01:25;;;;;;;4.17;3.30;;;12.10;1.00;;;;;;5098630;28;20460;-79
2022/04/22 03:03:55;;;;;;;5.57;3.80;;;12.10;1.00;;;;;;5064368;28;20494;-80
2022/04/22 03:06:26;;;;;;;5.37;3.77;;;12.10;1.00;;;;;;5067017;28;20457;-79
2022/04/22 03:08:54;;;;;;;4.70;3.57;;;12.00;1.00;;;;;;5065892;28;20472;-80
2022/04/22 03:11:23;;;;;;;4.40;3.50;;;12.00;1.00;;;;;;5072687;28;20458;-80
2022/04/22 03:13:51;;;;;;;5.83;3.80;;;12.10;1.00;;;;;;5071702;28;20450;-79
2022/04/22 03:16:24;;;;;;;5.40;4.20;;;12.10;1.00;;;;;;5064109;28;21039;-78
2022/04/22 03:18:54;;;;;;;4.27;3.53;;;12.00;1.00;;;;;;5065580;28;20456;-78
2022/04/22 03:21:22;;;;;;;5.27;3.67;;;12.00;1.00;;;;;;5061666;28;20458;-79
2022/04/22 03:23:51;;;;;;;5.40;4.10;;;12.00;1.00;;;;;;5062910;28;20467;-80
2022/04/22 03:26:20;;;;;;;5.97;4.30;;;12.00;4.90;;;;;;5068317;28;20454;-79
2022/04/22 03:28:55;;;;;;;4.57;3.83;;;11.90;1.00;;;;;;5063486;28;20518;-79
2022/04/22 03:31:23;;;;;;;5.97;4.50;;;11.90;1.00;;;;;;5066876;28;20445;-81
2022/04/22 03:33:51;;;;;;;4.50;3.90;;;11.90;1.00;;;;;;5064722;28;20455;-78
2022/04/22 03:36:21;;;;;;;7.10;4.70;;;12.10;6.60;;;;;;5064136;28;20458;-79
2022/04/22 03:38:50;;;;;;;4.17;3.77;;;11.80;1.00;;;;;;5067810;28;20446;-78
2022/04/22 03:41:18;;;;;;;6.17;3.97;;;11.90;1.00;;;;;;5061746;28;20481;-80
2022/04/22 03:43:46;;;;;;;6.13;4.87;;;11.80;1.00;;;;;;5067209;28;20987;-79
2022/04/22 03:46:14;;;;;;;6.67;4.60;;;11.80;1.00;;;;;;5067075;28;20739;-79
2022/04/22 03:48:42;;;;;;;7.10;4.70;;;11.80;1.00;;;;;;5063382;28;20995;-79
2022/04/22 03:51:11;;;;;;;7.50;5.50;;;11.80;1.00;;;;;;5066797;28;20445;-79
2022/04/22 03:53:41;;;;;;;5.10;4.60;;;11.70;1.00;;;;;;5061734;28;20454;-79
2022/04/22 03:58:54;;;;;;;6.00;4.80;;;11.70;1.00;;;;;;5065621;28;20461;-82
2022/04/22 04:01:22;;;;;;;8.00;5.80;;;11.70;1.00;;;;;;5060855;28;20461;-79
2022/04/22 04:03:50;;;;;;;7.30;5.13;;;11.60;1.00;;;;;;5064302;28;20450;-78
2022/04/22 04:06:19;;;;;;;6.70;4.73;;;11.60;1.00;;;;;;5062178;28;20442;-81
2022/04/22 04:15:57;;;;;;;6.10;5.30;;;11.60;1.00;;;;;;5064657;28;20436;-79
2022/04/22 04:17:17;;;;;;;6.63;5.00;;;11.60;1.00;;;;;;5057908;28;20471;-79
2022/04/22 04:25:18;;;;;;;9.80;6.20;;;11.50;1.50;;;;;;5057907;28;20446;-79
2022/04/22 04:27:47;;;;;;;7.57;5.27;;;11.50;3.10;;;;;;5058723;28;20536;-78
2022/04/22 04:30:15;;;;;;;7.47;6.23;;;11.50;4.40;;;;;;5056618;28;20456;-80
2022/04/22 04:32:44;;;;;;;8.50;6.03;;;11.50;3.90;;;;;;5054998;28;21033;-80
2022/04/22 04:35:12;;;;;;;9.33;6.07;;;11.50;5.10;;;;;;5061131;28;21096;-80
2022/04/22 04:37:41;;;;;;;9.17;6.93;;;11.50;5.10;;;;;;5056386;28;20990;-79
2022/04/22 04:40:10;;;;;;;8.33;6.27;;;11.50;5.20;;;;;;5059744;28;20464;-77
2022/04/22 04:42:41;;;;;;;9.30;6.40;;;11.40;5.10;;;;;;5059723;28;20454;-79
2022/04/22 04:45:10;;;;;;;7.80;6.00;;;11.40;6.30;;;;;;5054589;28;20496;-78
2022/04/22 04:47:41;;;;;;;10.40;6.30;;;11.40;6.40;;;;;;5061065;28;20470;-77
2022/04/22 04:50:11;;;;;;;7.03;6.13;;;11.40;8.10;;;;;;5061073;28;20474;-79
2022/04/22 04:52:40;;;;;;;9.33;6.60;;;11.40;19.30;;;;;;5059587;28;20469;-79
2022/04/22 04:55:10;;;;;;;11.80;7.47;;;11.50;10.10;;;;;;5058269;28;20954;-80
2022/04/22 04:57:41;;;;;;;9.67;7.23;;;11.30;11.20;;;;;;5062666;28;21122;-78
2022/04/22 05:00:18;;;;;;;10.40;6.93;;;11.30;12.00;;;;;;5061474;28;20450;-79
2022/04/22 05:02:46;;;;;;;9.80;7.07;;;11.40;11.50;;;;;;5065685;28;20451;-81
2022/04/22 05:05:15;;;;;;;8.30;6.80;;;11.40;14.00;;;;;;5064741;28;20459;-79
2022/04/22 05:07:51;;;;;;;9.00;7.33;;;11.30;13.90;;;;;;5070575;28;20493;-79
2022/04/22 05:10:20;;;;;;;10.53;7.40;;;11.30;15.40;;;;;;5072633;28;20446;-80
2022/04/22 05:12:50;;;;;;;10.30;7.60;;;11.30;18.20;;;;;;5058230;28;20530;-80
2022/04/22 05:15:19;;;;;;;8.63;7.30;;;11.50;19.10;;;;;;5061766;28;20436;-80
2022/04/22 05:17:48;;;;;;;9.30;8.40;;;11.30;21.50;;;;;;5064179;28;20499;-78
2022/04/22 05:20:20;;;;;;;11.63;7.30;;;11.40;22.50;;;;;;5069370;28;20504;-78
2022/04/22 05:22:48;;;;;;;9.40;7.40;;;11.40;22.80;;;;;;5059998;28;20510;-80
2022/04/22 05:25:17;;;;;;;7.90;6.87;;;11.50;23.90;;;;;;5065744;28;20452;-80
2022/04/22 05:27:46;;;;;;;10.10;7.30;;;11.50;24.60;;;;;;5064397;28;21040;-79
2022/04/22 05:33:04;;;;;;;12.30;8.00;;;11.60;25.90;;;;;;5065714;28;21465;-78
2022/04/22 05:35:33;;;;;;;10.90;8.00;;;11.60;25.70;;;;;;5063826;28;20895;-77
2022/04/22 05:38:02;;;;;;;13.20;8.63;;;11.60;27.60;;;;;;5076767;28;21074;-78
2022/04/22 05:40:33;;;;;;;9.80;8.07;;;11.60;28.70;;;;;;5063743;28;20455;-77
2022/04/22 05:43:02;;;;;;;12.97;8.87;;;11.60;30.40;;;;;;5058561;28;21085;-78
2022/04/22 05:45:32;;;;;;;11.97;8.67;;;11.70;30.00;;;;;;5062215;28;20516;-78
2022/04/22 05:48:00;;;;;;;11.33;8.47;;;11.70;33.10;;;;;;5060537;28;20475;-76
2022/04/22 05:50:28;;;;;;;9.87;8.10;;;11.80;33.60;;;;;;5063972;28;20456;-79
2022/04/22 05:53:00;;;;;;;9.80;7.63;;;11.80;36.10;;;;;;5064334;28;20452;-79
2022/04/22 05:55:29;;;;;;;10.97;7.63;;;11.80;37.10;;;;;;5061119;28;20474;-79
2022/04/22 05:57:59;;;;;;;12.87;9.20;;;11.90;38.70;;;;;;5060497;28;20493;-78
2022/04/22 06:00:30;;;;;;;11.73;7.97;;;11.90;39.90;;;;;;5064302;28;20467;-78
2022/04/22 06:03:00;;;;;;;10.00;7.90;;;12.00;40.20;;;;;;5063308;28;20434;-79
2022/04/22 06:05:28;;;;;;;11.53;9.00;;;12.00;55.80;;;;;;5063100;28;21040;-77
2022/04/22 06:10:42;;;;;;;12.80;9.10;;;12.10;43.00;;;;;;5060014;28;20455;-78
2022/04/22 06:13:10;;;;;;;13.47;8.87;;;12.10;43.50;;;;;;5062032;28;20461;-77
2022/04/22 06:15:39;;;;;;;12.50;8.80;;;12.10;45.00;;;;;;5059326;28;20809;-78
2022/04/22 06:18:08;;;;;;;13.07;10.07;;;12.30;49.70;;;;;;5062433;28;20478;-80
2022/04/22 06:20:37;;;;;;;14.63;8.73;;;12.40;47.10;;;;;;5064481;28;20469;-77
2022/04/22 06:23:06;;;;;;;14.43;9.83;;;12.60;45.00;;;;;;5053222;28;21267;-79
2022/04/22 06:25:34;;;;;;;13.20;9.67;;;12.80;44.60;;;;;;5062220;28;20451;-77
2022/04/22 06:28:02;;;;;;;15.87;10.57;;;13.00;43.80;;;;;;5062325;28;21021;-78
2022/04/22 06:30:31;;;;;;;14.05;10.65;;;13.20;39.50;;;;;;5058701;28;20449;-76
2022/04/22 06:33:03;;;;;;;13.20;10.00;;;13.40;38.00;;;;;;5063575;28;20282;-74
2022/04/22 06:35:33;;;;;;;11.60;9.10;;;13.60;35.90;;;;;;5059298;28;20451;-77
2022/04/22 06:38:02;;;;;;;13.13;9.87;;;13.80;33.60;;;;;;5062204;28;20930;-78
2022/04/22 06:46:16;;;;;;;14.13;10.37;;;14.30;30.40;;;;;;5015602;28;20451;-78
2022/04/22 06:48:45;;;;;;;13.43;10.70;;;14.50;29.60;;;;;;5046997;28;20464;-77
2022/04/22 06:51:17;;;;;;;15.80;11.97;;;14.60;29.90;;;;;;5067862;28;20450;-78
2022/04/22 06:53:47;;;;;;;12.27;9.77;;;14.80;28.90;;;;;;5055839;28;20504;-78
2022/04/22 06:56:15;;;;;;;12.90;9.20;;;14.90;29.10;;;;;;5058424;28;20475;-78
2022/04/22 06:58:44;;;;;;;15.13;9.90;;;15.10;29.30;;;;;;5065036;28;20483;-75
2022/04/22 07:01:12;;;;;;;16.10;11.93;;;15.20;28.40;;;;;;5063510;28;20470;-78
2022/04/22 07:04:01;;;;;;;14.47;10.50;;;15.30;27.50;;;;;;5056947;28;20507;-77
2022/04/22 07:06:32;;;;;;;12.77;9.93;;;15.40;28.00;;;;;;5066212;28;20475;-78
2022/04/22 07:09:00;;;;;;;12.40;9.27;;;15.60;28.20;;;;;;5057745;28;20470;-80
2022/04/22 07:11:30;;;;;;;12.83;9.67;;;15.70;28.70;;;;;;5056292;28;20825;-78
2022/04/22 07:14:00;;;;;;;13.23;9.70;;;15.80;28.60;;;;;;5068868;28;20499;-79
2022/04/22 07:16:29;;;;;;;15.83;11.23;;;16.00;28.80;;;;;;5060801;28;20527;-77
2022/04/22 07:18:59;;;;;;;16.23;10.37;;;16.10;27.50;;;;;;5058449;28;20600;-78
2022/04/22 07:21:28;;;;;;;12.03;9.27;;;16.20;26.70;;;;;;5053617;28;20993;-78
2022/04/22 07:23:59;;;;;;;12.60;9.13;;;16.20;27.40;;;;;;5060156;28;20459;-80
2022/04/22 07:26:27;;;;;;;10.90;9.70;;;16.20;27.80;;;;;;5058423;28;20463;-78
2022/04/22 07:28:59;;;;;;;14.83;10.70;;;16.30;28.60;;;;;;5059883;28;20454;-80
2022/04/22 07:31:31;;;;;;;14.87;9.67;;;16.30;27.90;;;;;;5062347;28;20466;-79
2022/04/22 07:34:00;;;;;;;12.73;10.80;;;16.40;27.60;;;;;;5057126;28;20465;-79
2022/04/22 07:36:29;;;;;;;13.53;10.20;;;16.50;29.00;;;;;;5094420;28;20456;-78
2022/04/22 07:38:59;;;;;;;18.73;10.03;;;16.50;28.50;;;;;;5062558;28;20479;-79
2022/04/22 07:41:29;;;;;;;12.93;10.67;;;16.50;27.40;;;;;;5069946;28;20976;-80
2022/04/22 07:46:47;;;;;;;13.33;10.67;;;16.50;27.50;;;;;;5062705;28;20476;-79
2022/04/22 07:49:17;;;;;;;13.10;9.90;;;16.60;28.20;;;;;;5063014;28;20450;-77
2022/04/22 07:51:45;;;;;;;15.60;10.27;;;16.70;28.70;;;;;;5066257;28;20508;-80
2022/04/22 07:54:14;;;;;;;14.20;11.00;;;16.70;30.20;;;;;;5061451;28;20450;-81
2022/04/22 07:56:43;;;;;;;13.50;10.33;;;16.80;30.50;;;;;;5064578;28;20483;-80
2022/04/22 07:59:12;;;;;;;14.00;10.23;;;16.80;29.10;;;;;;5061411;28;20487;-80
2022/04/22 08:01:40;;;;;;;14.77;10.10;;;16.80;28.90;;;;;;5063605;28;20516;-79
2022/04/22 08:04:10;;;;;;;12.70;9.60;;;16.80;28.10;;;;;;5065564;28;20451;-78
2022/04/22 08:06:39;;;;;;;11.33;9.47;;;16.80;30.00;;;;;;5061421;28;20451;-79
2022/04/22 08:09:08;;;;;;;12.93;10.37;;;16.80;29.00;;;;;;5061790;28;20470;-79
2022/04/22 08:11:37;;;;;;;13.23;10.20;;;16.90;29.00;;;;;;5069086;28;20463;-79
2022/04/22 08:14:06;;;;;;;12.33;9.70;;;16.80;28.50;;;;;;5060831;28;20446;-79
2022/04/22 08:16:34;;;;;;;12.70;9.90;;;16.90;29.20;;;;;;5061509;28;20464;-80
2022/04/22 08:19:02;;;;;;;15.87;10.00;;;16.80;28.20;;;;;;5063646;28;20560;-76
2022/04/22 08:21:33;;;;;;;14.60;10.77;;;16.80;28.10;;;;;;5061973;28;20895;-79
2022/04/22 08:24:02;;;;;;;10.87;9.37;;;16.80;27.50;;;;;;5070125;28;20448;-77
2022/04/22 08:26:32;;;;;;;14.77;9.43;;;16.90;27.50;;;;;;5063515;28;20542;-78
2022/04/22 08:29:02;;;;;;;14.00;9.33;;;16.90;26.40;;;;;;5061675;28;20455;-79
2022/04/22 08:31:30;;;;;;;10.47;9.07;;;16.90;26.90;;;;;;5060453;28;20442;-77
2022/04/22 08:33:58;;;;;;;9.50;8.30;;;16.90;25.30;;;;;;5060663;28;21374;-79
2022/04/22 08:36:29;;;;;;;13.10;9.10;;;16.90;26.40;;;;;;5060171;28;20748;-78
2022/04/22 08:38:58;;;;;;;10.37;9.03;;;16.90;27.30;;;;;;5065092;28;20823;-77
2022/04/22 08:41:27;;;;;;;13.57;9.30;;;17.00;28.30;;;;;;5065119;28;20459;-78
2022/04/22 08:43:56;;;;;;;12.37;8.70;;;17.00;28.00;;;;;;5062981;28;20456;-79
2022/04/22 08:51:58;;;;;;;11.70;10.10;;;17.10;28.00;;;;;;5063120;28;20462;-79
2022/04/22 08:54:30;;;;;;;13.20;9.60;;;17.20;27.50;;;;;;5061667;28;20448;-80
2022/04/22 08:57:00;;;;;;;10.83;9.03;;;17.20;26.20;;;;;;5062261;28;20489;-78
2022/04/22 08:59:28;;;;;;;9.73;8.10;;;17.10;25.20;;;;;;5065904;28;20463;-80
2022/04/22 09:01:58;;;;;;;8.70;7.80;;;17.10;24.90;;;;;;5063661;28;20483;-78
2022/04/22 09:04:27;;;;;;;10.53;9.03;;;17.00;24.10;;;;;;5059869;28;20534;-78
2022/04/22 09:06:56;;;;;;;12.73;8.23;;;16.90;21.00;;;;;;5059965;28;20564;-77
2022/04/22 09:09:25;;;;;;;10.70;8.47;;;16.90;23.70;;;;;;5062990;28;21092;-78
2022/04/22 09:12:11;;;;;;;8.73;7.83;;;16.90;23.70;;;;;;5062186;28;20447;-78
2022/04/22 09:14:45;;;;;;;11.47;8.73;;;17.10;25.80;;;;;;5063908;28;21288;-77
2022/04/22 09:17:17;;;;;;;8.27;7.47;;;17.00;23.70;;;;;;5067615;28;20471;-77
2022/04/22 09:19:46;;;;;;;8.93;8.00;;;16.90;21.80;;;;;;5060433;28;20480;-80
2022/04/22 09:22:19;;;;;;;10.53;8.37;;;16.80;21.50;;;;;;5065287;28;20972;-80
2022/04/22 09:24:50;;;;;;;8.33;7.00;;;16.90;24.40;;;;;;5070766;28;20502;-82
2022/04/22 09:27:19;;;;;;;8.83;7.47;;;17.00;26.10;;;;;;5066691;28;20565;-82
2022/04/22 09:29:55;;;;;;;11.80;8.47;;;17.10;25.70;;;;;;5068540;28;20526;-82
2022/04/22 09:32:29;;;;;;;7.90;7.10;;;17.20;26.80;;;;;;5070322;28;21006;-85
2022/04/22 09:34:59;;;;;;;8.60;7.10;;;17.30;29.10;;;;;;5068992;28;20469;-83
2022/04/22 09:43:02;;;;;;;7.93;7.13;;;17.60;29.60;;;;;;5053355;28;20459;-81
2022/04/22 09:45:38;;;;;;;8.10;6.40;;;17.70;29.60;;;;;;5061085;28;20987;-81
2022/04/22 09:48:15;;;;;;;9.00;6.80;;;17.70;30.20;;;;;;5070136;28;20543;-81
2022/04/22 09:50:46;;;;;;;8.97;6.07;;;17.80;32.30;;;;;;5071107;28;20457;-81
2022/04/22 09:53:16;;;;;;;8.23;6.90;;;17.90;32.80;;;;;;5068922;28;20453;-83
2022/04/22 09:55:53;;;;;;;7.43;6.73;;;17.90;34.70;;;;;;5069191;28;20457;-82
2022/04/22 09:58:25;;;;;;;7.57;6.80;;;18.00;34.80;;;;;;5065036;28;20485;-83
2022/04/22 10:01:00;;;;;;;8.67;7.20;;;18.10;33.90;;;;;;5071455;28;20530;-81
2022/04/22 10:03:31;;;;;;;6.87;6.20;;;18.10;32.00;;;;;;5059657;28;20550;-81
2022/04/22 10:06:01;;;;;;;7.60;6.83;;;18.20;32.00;;;;;;5068614;28;20513;-81
2022/04/22 10:08:32;;;;;;;8.27;6.30;;;18.20;32.90;;;;;;5061391;28;20478;-83
2022/04/22 10:11:02;;;;;;;7.50;6.37;;;18.30;35.10;;;;;;5067194;28;20453;-83
2022/04/22 10:13:41;;;;;;;11.97;8.50;;;18.40;36.30;;;;;;5067908;28;20459;-83
2022/04/22 10:16:10;;;;;;;9.53;7.30;;;18.40;33.00;;;;;;5068663;28;20465;-83
2022/04/22 10:18:41;;;;;;;8.93;8.03;;;18.40;35.00;;;;;;5065902;28;20490;-84
2022/04/22 10:21:10;;;;;;;7.97;6.93;;;18.40;34.10;;;;;;5067272;28;21048;-84
2022/04/22 10:23:46;;;;;;;8.97;8.07;;;18.40;33.70;;;;;;5069630;28;20490;-84
2022/04/22 10:26:15;;;;;;;9.33;8.13;;;18.40;33.60;;;;;;5066636;28;20485;-81
2022/04/22 10:28:45;;;;;;;12.30;7.60;;;18.50;36.20;;;;;;5068676;28;20468;-81
2022/04/22 10:31:15;;;;;;;9.23;8.37;;;18.50;36.40;;;;;;5074885;28;20504;-83
2022/04/22 10:33:47;;;;;;;7.83;6.53;;;18.60;35.80;;;;;;5067877;28;20461;-82
2022/04/22 10:36:19;;;;;;;10.50;7.27;;;18.60;36.30;;;;;;5070720;28;20466;-83
2022/04/22 10:38:48;;;;;;;7.70;6.53;;;18.60;35.70;;;;;;5068022;28;20473;-82
2022/04/22 10:41:17;;;;;;;7.97;7.20;;;18.70;36.20;;;;;;5062727;28;20481;-82
2022/04/22 10:47:13;;;;;;;8.60;7.00;;;18.70;36.10;;;;;;5058778;28;20561;-81
2022/04/22 10:49:43;;;;;;;7.13;6.43;;;18.80;39.30;;;;;;5063932;28;20453;-82
2022/04/22 10:52:13;;;;;;;8.27;6.60;;;18.80;38.00;;;;;;5060669;28;20447;-82
2022/04/22 10:55:12;;;;;;;8.17;6.97;;;18.90;38.80;;;;;;5070395;28;20467;-84
2022/04/22 10:57:42;;;;;;;7.03;6.13;;;19.00;39.70;;;;;;5058433;28;20482;-83
2022/04/22 11:00:27;;;;;;;7.10;6.40;;;19.00;38.70;;;;;;5069254;28;20540;-83
2022/04/22 11:03:18;;;;;;;8.00;6.40;;;19.00;39.90;;;;;;5065343;28;20544;-83
2022/04/22 11:05:49;;;;;;;8.13;7.10;;;19.10;40.00;;;;;;5064553;28;20463;-82
2022/04/22 11:08:29;;;;;;;9.10;6.10;;;19.10;38.20;;;;;;5067709;28;20481;-81
2022/04/22 11:11:17;;;;;;;7.70;6.97;;;19.10;38.70;;;;;;5070235;28;20480;-81
2022/04/22 11:13:52;;;;;;;8.10;6.60;;;19.10;38.70;;;;;;5068378;28;20458;-83
2022/04/22 11:16:29;;;;;;;7.90;6.23;;;19.10;39.10;;;;;;5056518;28;20458;-79
2022/04/22 11:19:26;;;;;;;6.47;5.87;;;19.10;37.10;;;;;;5070292;28;20446;-83
2022/04/22 11:21:59;;;;;;;6.83;6.13;;;19.10;37.80;;;;;;5066641;28;20466;-83
2022/04/22 11:24:29;;;;;;;6.63;5.87;;;19.10;38.80;;;;;;5067368;28;21038;-83
2022/04/22 11:27:10;;;;;;;10.83;9.73;;;19.10;36.30;;;;;;5066086;28;20487;-81
2022/04/22 11:29:39;;;;;;;7.10;6.40;;;18.90;32.10;;;;;;5068716;28;20451;-80
2022/04/22 11:32:20;;;;;;;6.53;5.33;;;18.90;33.80;;;;;;5062062;28;20446;-80
2022/04/22 11:35:17;;;;;;;7.37;6.23;;;19.10;35.60;;;;;;5067111;28;20453;-82
2022/04/22 11:37:56;;;;;;;7.50;5.13;;;19.20;52.90;;;;;;5056790;28;21276;-81
2022/04/22 11:40:25;;;;;;;8.00;6.20;;;19.30;41.90;;;;;;5065377;28;20462;-80
2022/04/22 11:42:54;;;;;;;7.57;5.63;;;19.30;37.60;;;;;;5065501;28;20446;-80
2022/04/22 11:45:23;;;;;;;6.80;6.00;;;19.40;41.70;;;;;;5066902;28;20972;-83
2022/04/22 11:47:51;;;;;;;7.93;6.10;;;19.40;42.10;;;;;;5062306;28;20478;-82
2022/04/22 11:50:21;;;;;;;7.00;6.10;;;19.50;43.10;;;;;;5061787;28;20644;-80
2022/04/22 11:52:56;;;;;;;7.60;6.20;;;19.60;43.20;;;;;;5056211;28;20447;-80
2022/04/22 11:55:25;;;;;;;7.10;6.17;;;19.60;43.40;;;;;;5098068;28;20973;-80
2022/04/22 11:57:54;;;;;;;6.93;6.10;;;19.60;43.70;;;;;;5058911;28;21012;-79
2022/04/22 12:05:53;;;;;;;6.80;5.70;;;19.70;42.30;;;;;;5063513;28;20826;-79
2022/04/22 12:08:24;;;;;;;6.50;5.73;;;19.70;43.90;;;;;;5065175;28;20458;-80
2022/04/22 12:10:52;;;;;;;5.83;5.17;;;19.80;43.70;;;;;;5065302;28;20525;-81
2022/04/22 12:13:21;;;;;;;6.73;6.03;;;19.80;46.10;;;;;;5065087;28;20447;-80
2022/04/22 12:15:49;;;;;;;7.27;5.90;;;19.80;44.00;;;;;;5059496;28;20446;-82
2022/04/22 12:18:35;;;;;;;6.57;5.87;;;19.90;44.40;;;;;;5060324;28;20477;-79
2022/04/22 12:21:06;;;;;;;8.27;6.97;;;19.80;40.40;;;;;;5060193;28;20466;-80
2022/04/22 12:23:37;;;;;;;9.27;6.80;;;19.80;38.90;;;;;;5060899;28;20538;-79
2022/04/22 12:26:06;;;;;;;6.97;6.37;;;19.80;40.90;;;;;;5065457;28;20447;-81
2022/04/22 12:28:34;;;;;;;6.17;5.57;;;19.80;42.10;;;;;;5064537;28;20467;-80
2022/04/22 12:31:03;;;;;;;8.83;6.30;;;19.80;42.50;;;;;;5065261;28;20450;-79
2022/04/22 12:33:32;;;;;;;5.80;5.30;;;19.80;42.20;;;;;;5066132;28;20966;-82
2022/04/22 12:36:07;;;;;;;5.60;5.10;;;19.90;42.60;;;;;;5071213;28;20553;-77
2022/04/22 12:38:38;;;;;;;6.13;5.53;;;19.90;42.40;;;;;;5067761;28;21043;-79
2022/04/22 12:41:17;;;;;;;6.63;5.20;;;20.00;43.30;;;;;;5067419;28;20451;-80
2022/04/22 12:43:49;;;;;;;8.37;7.30;;;20.00;41.80;;;;;;5069129;28;20495;-80
2022/04/22 12:52:11;;;;;;;5.97;5.37;;;19.80;36.50;;;;;;5061423;28;20481;-79
2022/04/22 12:54:43;;;;;;;6.90;6.20;;;19.80;40.50;;;;;;5062866;28;20742;-81
2022/04/22 12:57:28;;;;;;;7.33;6.43;;;19.90;38.60;;;;;;5064961;28;20485;-80
2022/04/22 12:59:58;;;;;;;6.07;5.57;;;20.00;39.60;;;;;;5056663;28;20459;-82
2022/04/22 13:02:46;;;;;;;8.27;6.73;;;20.00;39.70;;;;;;5062608;28;20571;-78
2022/04/22 13:05:19;;;;;;;6.07;5.47;;;20.10;40.60;;;;;;5068893;28;20471;-81
2022/04/22 13:07:49;;;;;;;7.00;4.93;;;19.90;38.00;;;;;;5066224;28;20478;-81
2022/04/22 13:10:22;;;;;;;5.87;5.27;;;20.00;37.80;;;;;;5070313;28;20497;-80
2022/04/22 13:12:50;;;;;;;5.27;4.70;;;20.10;40.10;;;;;;5067539;28;20455;-80
2022/04/22 13:15:19;;;;;;;6.00;5.40;;;20.20;41.70;;;;;;5063645;28;20455;-80
2022/04/22 13:17:53;;;;;;;7.07;5.43;;;20.20;40.30;;;;;;5057524;28;20474;-78
2022/04/22 13:20:22;;;;;;;8.37;5.53;;;20.30;40.50;;;;;;5066312;28;20478;-77
2022/04/22 13:22:50;;;;;;;5.80;5.23;;;20.40;43.00;;;;;;5066302;28;20467;-81
2022/04/22 13:25:21;;;;;;;6.30;5.80;;;20.40;41.80;;;;;;5059264;28;20466;-79
2022/04/22 13:27:49;;;;;;;4.80;4.40;;;20.40;43.10;;;;;;5068983;28;20540;-82
2022/04/22 13:30:17;;;;;;;4.80;4.40;;;20.40;41.60;;;;;;5066418;28;20512;-79
2022/04/22 13:32:46;;;;;;;4.83;4.43;;;20.40;42.50;;;;;;5065142;28;20463;-79
2022/04/22 13:35:14;;;;;;;6.10;4.60;;;20.40;43.70;;;;;;5062482;28;20855;-80
2022/04/22 13:37:42;;;;;;;8.00;4.83;;;20.50;43.90;;;;;;5067229;28;20505;-78
2022/04/22 13:40:11;;;;;;;4.63;4.23;;;20.50;43.10;;;;;;5063138;28;20455;-79
2022/04/22 13:42:41;;;;;;;5.10;4.70;;;20.50;41.60;;;;;;5063918;28;20467;-79
2022/04/22 13:53:27;;;;;;;4.20;3.80;;;20.70;44.00;;;;;;5062340;28;20443;-80
2022/04/22 13:55:55;;;;;;;4.47;4.07;;;20.70;45.10;;;;;;5061793;28;20559;-79
2022/04/22 13:58:25;;;;;;;4.63;3.80;;;20.80;43.70;;;;;;5061383;28;21289;-80
2022/04/22 14:00:53;;;;;;;4.80;4.00;;;20.70;41.90;;;;;;5066684;28;20453;-79
2022/04/22 14:03:21;;;;;;;5.30;4.80;;;20.70;38.50;;;;;;5063924;28;20471;-80
2022/04/22 14:05:49;;;;;;;5.37;4.87;;;20.50;37.90;;;;;;5065509;28;20462;-81
2022/04/22 14:08:17;;;;;;;5.30;4.80;;;20.60;40.20;;;;;;5066894;28;20481;-80
2022/04/22 14:10:47;;;;;;;5.40;4.83;;;20.60;39.60;;;;;;5065004;28;20451;-79
2022/04/22 14:13:15;;;;;;;4.70;4.30;;;20.60;39.60;;;;;;5066913;28;20466;-81
2022/04/22 14:15:45;;;;;;;4.37;3.97;;;20.70;40.80;;;;;;5063283;28;20459;-81
2022/04/22 14:18:14;;;;;;;5.47;4.97;;;20.80;42.00;;;;;;5062896;28;20501;-80